sensor_id;sensor_type;location;lat;lon;timestamp;P1;durP1;ratioP1;P2;durP2;ratioP2
4527;SDS011;62320;51.520;6.818;2023-04-21T00:02:09;24.30;;;10.10;;
4527;SDS011;62320;51.520;6.818;2023-04-21T00:12:11;24.17;;;10.40;;
4527;SDS011;62320;51.520;6.818;2023-04-21T00:22:12;23.30;;;10.80;;
4527;SDS011;62320;51.520;6.818;2023-04-21T00:32:15;25.17;;;10.88;;
4527;SDS011;62320;51.520;6.818;2023-04-21T00:42:16;25.10;;;10.57;;
4527;SDS011;62320;51.520;6.818;2023-04-21T00:52:17;27.83;;;11.40;;
4527;SDS011;62320;51.520;6.818;2023-04-21T01:02:19;31.80;;;13.07;;
4527;SDS011;62320;51.520;6.818;2023-04-21T01:12:23;29.00;;;11.30;;
4527;SDS011;62320;51.520;6.818;2023-04-21T01:22:24;31.60;;;12.80;;
4527;SDS011;62320;51.520;6.818;2023-04-21T01:32:27;31.83;;;12.82;;
4527;SDS011;62320;51.520;6.818;2023-04-21T01:42:30;29.73;;;12.40;;
4527;SDS011;62320;51.520;6.818;2023-04-21T01:52:32;31.50;;;12.87;;
4527;SDS011;62320;51.520;6.818;2023-04-21T02:02:34;18.25;;;7.65;;
4527;SDS011;62320;51.520;6.818;2023-04-21T02:12:35;34.03;;;13.95;;
4527;SDS011;62320;51.520;6.818;2023-04-21T02:22:37;28.90;;;12.40;;
4527;SDS011;62320;51.520;6.818;2023-04-21T02:32:38;32.23;;;13.37;;
4527;SDS011;62320;51.520;6.818;2023-04-21T02:42:40;35.13;;;14.88;;
4527;SDS011;62320;51.520;6.818;2023-04-21T02:52:42;34.30;;;14.50;;
4527;SDS011;62320;51.520;6.818;2023-04-21T03:02:43;35.43;;;14.70;;
4527;SDS011;62320;51.520;6.818;2023-04-21T03:12:45;37.70;;;15.50;;
4527;SDS011;62320;51.520;6.818;2023-04-21T03:22:46;30.73;;;13.67;;
4527;SDS011;62320;51.520;6.818;2023-04-21T03:32:48;38.17;;;16.00;;
4527;SDS011;62320;51.520;6.818;2023-04-21T03:42:50;36.10;;;15.00;;
4527;SDS011;62320;51.520;6.818;2023-04-21T03:52:51;36.25;;;15.35;;
4527;SDS011;62320;51.520;6.818;2023-04-21T04:02:53;41.03;;;17.77;;
4527;SDS011;62320;51.520;6.818;2023-04-21T04:12:54;37.30;;;15.70;;
4527;SDS011;62320;51.520;6.818;2023-04-21T04:22:56;39.03;;;15.85;;
4527;SDS011;62320;51.520;6.818;2023-04-21T04:32:57;37.87;;;15.80;;
4527;SDS011;62320;51.520;6.818;2023-04-21T04:42:59;42.30;;;17.07;;
4527;SDS011;62320;51.520;6.818;2023-04-21T04:53:02;35.88;;;14.63;;
4527;SDS011;62320;51.520;6.818;2023-04-21T05:03:04;40.63;;;16.37;;
4527;SDS011;62320;51.520;6.818;2023-04-21T05:13:06;41.00;;;16.23;;
4527;SDS011;62320;51.520;6.818;2023-04-21T05:23:07;40.40;;;16.90;;
4527;SDS011;62320;51.520;6.818;2023-04-21T05:33:09;38.25;;;16.58;;
4527;SDS011;62320;51.520;6.818;2023-04-21T05:43:10;47.60;;;19.63;;
4527;SDS011;62320;51.520;6.818;2023-04-21T05:53:12;45.83;;;18.33;;
4527;SDS011;62320;51.520;6.818;2023-04-21T06:03:13;59.72;;;20.80;;
4527;SDS011;62320;51.520;6.818;2023-04-21T06:13:15;46.53;;;19.00;;
4527;SDS011;62320;51.520;6.818;2023-04-21T06:23:16;41.73;;;18.27;;
4527;SDS011;62320;51.520;6.818;2023-04-21T06:33:18;45.85;;;18.33;;
4527;SDS011;62320;51.520;6.818;2023-04-21T06:43:19;40.50;;;17.20;;
4527;SDS011;62320;51.520;6.818;2023-04-21T06:53:21;41.73;;;17.83;;
4527;SDS011;62320;51.520;6.818;2023-04-21T07:03:22;36.67;;;16.35;;
4527;SDS011;62320;51.520;6.818;2023-04-21T07:13:25;41.30;;;16.85;;
4527;SDS011;62320;51.520;6.818;2023-04-21T07:23:27;39.97;;;16.10;;
4527;SDS011;62320;51.520;6.818;2023-04-21T07:33:29;43.93;;;17.67;;
4527;SDS011;62320;51.520;6.818;2023-04-21T07:43:30;41.55;;;17.98;;
4527;SDS011;62320;51.520;6.818;2023-04-21T07:53:32;36.77;;;15.40;;
4527;SDS011;62320;51.520;6.818;2023-04-21T08:03:34;38.97;;;17.07;;
4527;SDS011;62320;51.520;6.818;2023-04-21T08:13:36;40.72;;;18.25;;
4527;SDS011;62320;51.520;6.818;2023-04-21T08:23:38;52.27;;;21.63;;
4527;SDS011;62320;51.520;6.818;2023-04-21T08:33:39;44.17;;;20.13;;
4527;SDS011;62320;51.520;6.818;2023-04-21T08:43:58;42.30;;;21.00;;
4527;SDS011;62320;51.520;6.818;2023-04-21T08:54:00;44.80;;;18.88;;
4527;SDS011;62320;51.520;6.818;2023-04-21T09:04:14;44.93;;;19.90;;
4527;SDS011;62320;51.520;6.818;2023-04-21T09:14:18;32.97;;;16.87;;
4527;SDS011;62320;51.520;6.818;2023-04-21T09:24:20;22.98;;;11.02;;
4527;SDS011;62320;51.520;6.818;2023-04-21T09:34:23;35.63;;;16.80;;
4527;SDS011;62320;51.520;6.818;2023-04-21T09:44:26;36.27;;;16.83;;
4527;SDS011;62320;51.520;6.818;2023-04-21T09:54:29;32.90;;;16.40;;
4527;SDS011;62320;51.520;6.818;2023-04-21T10:04:33;30.70;;;14.27;;
4527;SDS011;62320;51.520;6.818;2023-04-21T10:14:36;29.13;;;14.87;;
4527;SDS011;62320;51.520;6.818;2023-04-21T10:24:38;24.98;;;11.82;;
4527;SDS011;62320;51.520;6.818;2023-04-21T10:34:41;28.38;;;13.20;;
4527;SDS011;62320;51.520;6.818;2023-04-21T11:04:49;34.58;;;16.65;;
4527;SDS011;62320;51.520;6.818;2023-04-21T11:14:52;35.20;;;16.70;;
4527;SDS011;62320;51.520;6.818;2023-04-21T11:24:55;27.13;;;13.57;;
4527;SDS011;62320;51.520;6.818;2023-04-21T11:34:58;31.95;;;14.65;;
4527;SDS011;62320;51.520;6.818;2023-04-21T11:45:00;33.40;;;16.07;;
4527;SDS011;62320;51.520;6.818;2023-04-21T11:55:02;30.67;;;14.20;;
4527;SDS011;62320;51.520;6.818;2023-04-21T12:05:09;35.55;;;14.40;;
4527;SDS011;62320;51.520;6.818;2023-04-21T12:15:16;24.63;;;12.30;;
4527;SDS011;62320;51.520;6.818;2023-04-21T12:25:20;23.17;;;10.70;;
4527;SDS011;62320;51.520;6.818;2023-04-21T12:35:21;23.17;;;11.00;;
4527;SDS011;62320;51.520;6.818;2023-04-21T12:45:23;21.58;;;10.70;;
4527;SDS011;62320;51.520;6.818;2023-04-21T12:55:25;23.77;;;11.83;;
4527;SDS011;62320;51.520;6.818;2023-04-21T13:05:26;21.13;;;10.83;;
4527;SDS011;62320;51.520;6.818;2023-04-21T13:15:28;26.00;;;11.82;;
4527;SDS011;62320;51.520;6.818;2023-04-21T13:25:29;20.07;;;10.30;;
4527;SDS011;62320;51.520;6.818;2023-04-21T13:35:32;23.00;;;12.40;;
4527;SDS011;62320;51.520;6.818;2023-04-21T13:45:33;25.13;;;11.80;;
4527;SDS011;62320;51.520;6.818;2023-04-21T13:55:35;23.90;;;11.15;;
4527;SDS011;62320;51.520;6.818;2023-04-21T14:05:36;20.67;;;9.77;;
4527;SDS011;62320;51.520;6.818;2023-04-21T14:15:39;16.67;;;8.37;;
4527;SDS011;62320;51.520;6.818;2023-04-21T14:25:40;15.98;;;8.32;;
4527;SDS011;62320;51.520;6.818;2023-04-21T14:35:42;14.63;;;7.30;;
4527;SDS011;62320;51.520;6.818;2023-04-21T14:45:43;15.60;;;7.63;;
4527;SDS011;62320;51.520;6.818;2023-04-21T14:55:45;16.25;;;7.57;;
4527;SDS011;62320;51.520;6.818;2023-04-21T15:05:46;12.73;;;6.60;;
4527;SDS011;62320;51.520;6.818;2023-04-21T15:15:48;14.37;;;7.93;;
4527;SDS011;62320;51.520;6.818;2023-04-21T15:25:52;12.75;;;7.30;;
4527;SDS011;62320;51.520;6.818;2023-04-21T15:35:53;15.75;;;7.68;;
4527;SDS011;62320;51.520;6.818;2023-04-21T15:45:55;14.63;;;7.90;;
4527;SDS011;62320;51.520;6.818;2023-04-21T15:55:56;11.73;;;7.13;;
4527;SDS011;62320;51.520;6.818;2023-04-21T16:05:58;10.43;;;5.90;;
4527;SDS011;62320;51.520;6.818;2023-04-21T16:15:59;12.37;;;6.20;;
4527;SDS011;62320;51.520;6.818;2023-04-21T16:26:01;11.77;;;6.70;;
4527;SDS011;62320;51.520;6.818;2023-04-21T16:36:05;11.85;;;7.18;;
4527;SDS011;62320;51.520;6.818;2023-04-21T16:46:06;13.73;;;7.50;;
4527;SDS011;62320;51.520;6.818;2023-04-21T16:56:08;12.43;;;6.47;;
4527;SDS011;62320;51.520;6.818;2023-04-21T17:06:09;12.90;;;6.93;;
4527;SDS011;62320;51.520;6.818;2023-04-21T17:16:12;12.80;;;6.30;;
4527;SDS011;62320;51.520;6.818;2023-04-21T17:26:13;10.13;;;5.77;;
4527;SDS011;62320;51.520;6.818;2023-04-21T17:36:15;11.03;;;6.50;;
4527;SDS011;62320;51.520;6.818;2023-04-21T17:46:17;14.32;;;6.65;;
4527;SDS011;62320;51.520;6.818;2023-04-21T17:56:18;11.90;;;6.47;;
4527;SDS011;62320;51.520;6.818;2023-04-21T18:06:20;8.70;;;4.30;;
4527;SDS011;62320;51.520;6.818;2023-04-21T18:16:21;7.85;;;3.33;;
4527;SDS011;62320;51.520;6.818;2023-04-21T18:26:23;6.60;;;3.17;;
4527;SDS011;62320;51.520;6.818;2023-04-21T18:36:27;9.07;;;3.47;;
4527;SDS011;62320;51.520;6.818;2023-04-21T18:46:33;17.75;;;9.70;;
4527;SDS011;62320;51.520;6.818;2023-04-21T18:56:34;10.73;;;4.00;;
4527;SDS011;62320;51.520;6.818;2023-04-21T19:06:36;9.93;;;3.60;;
4527;SDS011;62320;51.520;6.818;2023-04-21T19:16:37;8.80;;;3.40;;
4527;SDS011;62320;51.520;6.818;2023-04-21T19:26:39;10.18;;;3.65;;
4527;SDS011;62320;51.520;6.818;2023-04-21T19:36:41;8.50;;;3.80;;
4527;SDS011;62320;51.520;6.818;2023-04-21T19:46:44;8.40;;;3.77;;
4527;SDS011;62320;51.520;6.818;2023-04-21T19:56:45;9.27;;;4.50;;
4527;SDS011;62320;51.520;6.818;2023-04-21T20:06:47;5.87;;;1.90;;
4527;SDS011;62320;51.520;6.818;2023-04-21T20:16:49;7.07;;;2.07;;
4527;SDS011;62320;51.520;6.818;2023-04-21T20:26:50;6.35;;;2.22;;
4527;SDS011;62320;51.520;6.818;2023-04-21T20:36:53;6.03;;;2.10;;
4527;SDS011;62320;51.520;6.818;2023-04-21T20:46:58;6.13;;;2.00;;
4527;SDS011;62320;51.520;6.818;2023-04-21T20:57:00;5.40;;;1.97;;
4527;SDS011;62320;51.520;6.818;2023-04-21T21:07:02;5.50;;;2.30;;
4527;SDS011;62320;51.520;6.818;2023-04-21T21:17:04;7.13;;;3.23;;
4527;SDS011;62320;51.520;6.818;2023-04-21T21:27:05;7.17;;;3.10;;
4527;SDS011;62320;51.520;6.818;2023-04-21T21:37:08;8.55;;;3.40;;
4527;SDS011;62320;51.520;6.818;2023-04-21T21:47:09;7.43;;;3.33;;
4527;SDS011;62320;51.520;6.818;2023-04-21T21:57:11;11.23;;;4.93;;
4527;SDS011;62320;51.520;6.818;2023-04-21T22:07:12;8.77;;;4.38;;
4527;SDS011;62320;51.520;6.818;2023-04-21T22:17:14;10.18;;;4.97;;
4527;SDS011;62320;51.520;6.818;2023-04-21T22:27:16;10.87;;;5.17;;
4527;SDS011;62320;51.520;6.818;2023-04-21T22:37:17;10.20;;;5.23;;
4527;SDS011;62320;51.520;6.818;2023-04-21T22:47:19;11.00;;;6.15;;
4527;SDS011;62320;51.520;6.818;2023-04-21T22:57:20;12.23;;;6.70;;
4527;SDS011;62320;51.520;6.818;2023-04-21T23:07:22;10.57;;;4.83;;
4527;SDS011;62320;51.520;6.818;2023-04-21T23:17:23;9.85;;;5.20;;
4527;SDS011;62320;51.520;6.818;2023-04-21T23:27:24;12.43;;;6.30;;
4527;SDS011;62320;51.520;6.818;2023-04-21T23:37:26;14.23;;;5.97;;
4527;SDS011;62320;51.520;6.818;2023-04-21T23:47:28;11.65;;;5.25;;
4527;SDS011;62320;51.520;6.818;2023-04-21T23:57:29;12.18;;;5.90;;
